Dana Point, CA (92629)

8:20 PM PDT on August 31, 2015 (GMT -0700)
Dana Hills | | Change Station
CLOSE
Current Station
Personal Weather Station
Location: Dana Point, CA
Elevation: 286 ft
Nearby Weather Stations

Elev 286 ft 33.48 °N, 117.70 °W | Updated 6 minutes ago

Scattered Clouds
Scattered Clouds
68.2 °F
Feels Like 68.2 °F
N
0.0
Wind Variable Wind from South
Gusts 0.0 mph

Today
High -- | Low -- °F
--% Chance of Precip.
Yesterday
High -- | Low -- °F
Precip. -- in
6:24 AM 7:17 PM
Waning Gibbous, 92% visible
Pressure 29.86 in
Visibility 10.0 miles
Clouds Scattered Clouds 1300 ft
Dew Point 64 °F
Humidity 86%
Rainfall 0.00 in
Snow Depth Not available.
UV 0 out of 12
Pollen 7.20 out of 12
Air Quality Not available.
Flu Activity Not available.
METAR KSNA 010253Z 21006KT 10SM SCT013 22/17 A2986 RMK AO2 SLP109 T02170172 53001
Pressure 29.86 in
Visibility 10.0 miles
Clouds Scattered Clouds 1300 ft
Dew Point 64 °F
Humidity 86%
Rainfall 0.00 in
Snow Depth Not available.
UV 0 out of 12
Pollen 7.20 out of 12
Air Quality Not available.
Flu Activity Not available.
METAR KSNA 010253Z 21006KT 10SM SCT013 22/17 A2986 RMK AO2 SLP109 T02170172 53001

10-Day Weather Forecast

×

Almanac

Astronomy

Aug. 31, 2015 Rise Set
Actual Time
Civil Twilight
Nautical Twilight
Astronomical Twilight
Moon
Length of Visible Light
Length of Day
Tomorrow will be .
, % of the Moon is Illuminated

Today's Extremes

State Highs State Lows

Community

WunderPhotos

Upload Photos

1,851,474 photos uploaded!

WunderBlogs® & News

Nearby

Air Quality

  Air Quality AQ Index Pollutant
Not available.

Snow Depth

Station Depth Elevation

Earthquake Activity

City Distance Mag. Time & Date
Minimum magnitude displayed is 2.5.

Coastal Water Temperatures

Place Temperature

Stations

Nearby Weather Stations

Station Location Temp. Windchill Dew Point Humidity Wind Precip. Elev Updated Type